sensor_id;sensor_type;location;lat;lon;timestamp;temperature;humidity
5419;DHT22;2732;52.092;11.556;2023-07-31T00:01:33;17.10;99.90
5419;DHT22;2732;52.092;11.556;2023-07-31T00:06:34;17.10;99.90
5419;DHT22;2732;52.092;11.556;2023-07-31T00:11:35;17.10;99.90
5419;DHT22;2732;52.092;11.556;2023-07-31T00:16:36;17.10;99.90
5419;DHT22;2732;52.092;11.556;2023-07-31T00:21:36;17.00;99.90
5419;DHT22;2732;52.092;11.556;2023-07-31T00:26:37;17.00;99.90
5419;DHT22;2732;52.092;11.556;2023-07-31T00:31:38;17.00;99.90
5419;DHT22;2732;52.092;11.556;2023-07-31T00:36:38;17.00;99.90
5419;DHT22;2732;52.092;11.556;2023-07-31T00:41:39;17.00;99.90
5419;DHT22;2732;52.092;11.556;2023-07-31T00:46:39;17.00;99.90
5419;DHT22;2732;52.092;11.556;2023-07-31T00:51:40;17.00;99.90
5419;DHT22;2732;52.092;11.556;2023-07-31T00:56:42;17.00;99.90
5419;DHT22;2732;52.092;11.556;2023-07-31T01:01:45;16.90;99.90
5419;DHT22;2732;52.092;11.556;2023-07-31T01:12:34;16.90;99.90
5419;DHT22;2732;52.092;11.556;2023-07-31T01:17:41;16.90;99.90
5419;DHT22;2732;52.092;11.556;2023-07-31T01:33:59;16.90;99.90
5419;DHT22;2732;52.092;11.556;2023-07-31T01:39:02;16.90;99.90
5419;DHT22;2732;52.092;11.556;2023-07-31T01:44:04;16.90;99.90
5419;DHT22;2732;52.092;11.556;2023-07-31T01:49:05;16.80;99.90
5419;DHT22;2732;52.092;11.556;2023-07-31T01:54:06;16.80;99.90
5419;DHT22;2732;52.092;11.556;2023-07-31T01:59:07;16.80;99.90
5419;DHT22;2732;52.092;11.556;2023-07-31T02:04:07;16.80;99.90
5419;DHT22;2732;52.092;11.556;2023-07-31T02:09:08;16.80;99.90
5419;DHT22;2732;52.092;11.556;2023-07-31T02:14:09;16.80;99.90
5419;DHT22;2732;52.092;11.556;2023-07-31T02:19:09;16.80;99.90
5419;DHT22;2732;52.092;11.556;2023-07-31T02:24:10;16.80;99.90
5419;DHT22;2732;52.092;11.556;2023-07-31T02:29:10;16.80;99.90
5419;DHT22;2732;52.092;11.556;2023-07-31T02:34:11;16.80;99.90
5419;DHT22;2732;52.092;11.556;2023-07-31T02:39:14;16.80;99.90
5419;DHT22;2732;52.092;11.556;2023-07-31T02:44:15;16.80;99.90
5419;DHT22;2732;52.092;11.556;2023-07-31T02:49:16;16.80;99.90
5419;DHT22;2732;52.092;11.556;2023-07-31T02:54:16;16.80;99.90
5419;DHT22;2732;52.092;11.556;2023-07-31T02:59:17;16.80;99.90
5419;DHT22;2732;52.092;11.556;2023-07-31T03:04:19;16.80;99.90
5419;DHT22;2732;52.092;11.556;2023-07-31T03:09:19;16.80;99.90
5419;DHT22;2732;52.092;11.556;2023-07-31T03:14:20;16.80;99.90
5419;DHT22;2732;52.092;11.556;2023-07-31T03:19:20;16.80;99.90
5419;DHT22;2732;52.092;11.556;2023-07-31T03:24:21;16.70;99.90
5419;DHT22;2732;52.092;11.556;2023-07-31T03:29:22;16.70;99.90
5419;DHT22;2732;52.092;11.556;2023-07-31T03:34:23;16.70;99.90
5419;DHT22;2732;52.092;11.556;2023-07-31T03:39:23;16.70;99.90
5419;DHT22;2732;52.092;11.556;2023-07-31T03:44:24;16.70;99.90
5419;DHT22;2732;52.092;11.556;2023-07-31T03:49:25;16.70;99.90
5419;DHT22;2732;52.092;11.556;2023-07-31T03:54:25;16.70;99.90
5419;DHT22;2732;52.092;11.556;2023-07-31T03:59:26;16.70;99.90
5419;DHT22;2732;52.092;11.556;2023-07-31T04:04:26;16.70;99.90
5419;DHT22;2732;52.092;11.556;2023-07-31T04:09:27;16.70;99.90
5419;DHT22;2732;52.092;11.556;2023-07-31T04:14:28;16.80;99.90
5419;DHT22;2732;52.092;11.556;2023-07-31T04:19:28;16.80;99.90
5419;DHT22;2732;52.092;11.556;2023-07-31T04:24:29;16.80;99.90
5419;DHT22;2732;52.092;11.556;2023-07-31T04:29:29;16.80;99.90
5419;DHT22;2732;52.092;11.556;2023-07-31T04:34:30;16.80;99.90
5419;DHT22;2732;52.092;11.556;2023-07-31T04:39:31;16.90;99.90
5419;DHT22;2732;52.092;11.556;2023-07-31T04:44:31;16.90;99.90
5419;DHT22;2732;52.092;11.556;2023-07-31T04:49:34;16.90;99.90
5419;DHT22;2732;52.092;11.556;2023-07-31T04:54:35;16.90;99.90
5419;DHT22;2732;52.092;11.556;2023-07-31T04:59:36;16.90;99.90
5419;DHT22;2732;52.092;11.556;2023-07-31T05:04:37;17.00;99.90
5419;DHT22;2732;52.092;11.556;2023-07-31T05:09:37;17.00;99.90
5419;DHT22;2732;52.092;11.556;2023-07-31T05:14:39;17.10;99.90
5419;DHT22;2732;52.092;11.556;2023-07-31T05:19:40;17.10;99.90
5419;DHT22;2732;52.092;11.556;2023-07-31T05:24:40;17.20;99.90
5419;DHT22;2732;52.092;11.556;2023-07-31T05:29:41;17.20;99.90
5419;DHT22;2732;52.092;11.556;2023-07-31T05:34:42;17.20;99.90
5419;DHT22;2732;52.092;11.556;2023-07-31T05:39:42;17.30;99.90
5419;DHT22;2732;52.092;11.556;2023-07-31T05:44:43;17.30;99.90
5419;DHT22;2732;52.092;11.556;2023-07-31T05:49:44;17.40;99.90
5419;DHT22;2732;52.092;11.556;2023-07-31T05:54:44;17.40;99.90
5419;DHT22;2732;52.092;11.556;2023-07-31T05:59:46;17.40;99.90
5419;DHT22;2732;52.092;11.556;2023-07-31T06:04:47;17.40;99.90
5419;DHT22;2732;52.092;11.556;2023-07-31T06:09:47;17.40;99.90
5419;DHT22;2732;52.092;11.556;2023-07-31T06:14:48;17.40;99.90
5419;DHT22;2732;52.092;11.556;2023-07-31T06:19:49;17.30;99.90
5419;DHT22;2732;52.092;11.556;2023-07-31T06:24:51;17.30;99.90
5419;DHT22;2732;52.092;11.556;2023-07-31T06:29:51;17.30;99.90
5419;DHT22;2732;52.092;11.556;2023-07-31T06:34:52;17.30;99.90
5419;DHT22;2732;52.092;11.556;2023-07-31T06:39:55;17.20;99.90
5419;DHT22;2732;52.092;11.556;2023-07-31T06:44:55;17.20;99.90
5419;DHT22;2732;52.092;11.556;2023-07-31T06:49:56;17.30;99.90
5419;DHT22;2732;52.092;11.556;2023-07-31T06:55:16;17.30;99.90
5419;DHT22;2732;52.092;11.556;2023-07-31T07:00:22;17.30;99.90
5419;DHT22;2732;52.092;11.556;2023-07-31T07:05:24;17.40;99.90
5419;DHT22;2732;52.092;11.556;2023-07-31T07:10:24;17.50;99.90
5419;DHT22;2732;52.092;11.556;2023-07-31T07:15:25;17.70;99.90
5419;DHT22;2732;52.092;11.556;2023-07-31T07:20:26;17.90;99.90
5419;DHT22;2732;52.092;11.556;2023-07-31T07:25:26;18.20;99.90
5419;DHT22;2732;52.092;11.556;2023-07-31T07:30:28;18.30;99.90
5419;DHT22;2732;52.092;11.556;2023-07-31T07:35:28;18.30;99.90
5419;DHT22;2732;52.092;11.556;2023-07-31T07:40:29;18.30;99.90
5419;DHT22;2732;52.092;11.556;2023-07-31T07:45:30;18.30;99.90
5419;DHT22;2732;52.092;11.556;2023-07-31T07:50:30;18.30;99.90
5419;DHT22;2732;52.092;11.556;2023-07-31T07:55:31;18.30;99.90
5419;DHT22;2732;52.092;11.556;2023-07-31T08:00:32;18.40;99.90
5419;DHT22;2732;52.092;11.556;2023-07-31T08:05:34;18.50;99.90
5419;DHT22;2732;52.092;11.556;2023-07-31T08:10:35;18.80;99.90
5419;DHT22;2732;52.092;11.556;2023-07-31T08:15:36;19.40;99.90
5419;DHT22;2732;52.092;11.556;2023-07-31T08:20:37;19.70;99.90
5419;DHT22;2732;52.092;11.556;2023-07-31T08:25:38;20.10;99.90
5419;DHT22;2732;52.092;11.556;2023-07-31T08:30:39;20.40;99.90
5419;DHT22;2732;52.092;11.556;2023-07-31T08:35:41;20.40;99.90
5419;DHT22;2732;52.092;11.556;2023-07-31T08:40:42;20.40;99.90
5419;DHT22;2732;52.092;11.556;2023-07-31T08:45:42;20.70;99.90
5419;DHT22;2732;52.092;11.556;2023-07-31T08:50:43;21.00;99.90
5419;DHT22;2732;52.092;11.556;2023-07-31T08:55:45;21.10;99.90
5419;DHT22;2732;52.092;11.556;2023-07-31T09:00:47;21.10;99.90
5419;DHT22;2732;52.092;11.556;2023-07-31T09:05:47;21.40;99.90
5419;DHT22;2732;52.092;11.556;2023-07-31T09:10:48;21.80;99.90
5419;DHT22;2732;52.092;11.556;2023-07-31T09:15:52;22.00;99.90
5419;DHT22;2732;52.092;11.556;2023-07-31T09:21:05;22.10;99.90
5419;DHT22;2732;52.092;11.556;2023-07-31T09:26:06;21.90;99.90
5419;DHT22;2732;52.092;11.556;2023-07-31T09:31:07;21.70;99.90
5419;DHT22;2732;52.092;11.556;2023-07-31T09:36:07;21.50;99.90
5419;DHT22;2732;52.092;11.556;2023-07-31T09:41:08;21.30;99.90
5419;DHT22;2732;52.092;11.556;2023-07-31T09:46:14;21.20;99.90
5419;DHT22;2732;52.092;11.556;2023-07-31T09:51:16;21.20;99.90
5419;DHT22;2732;52.092;11.556;2023-07-31T09:56:20;21.10;99.90
5419;DHT22;2732;52.092;11.556;2023-07-31T10:01:21;21.00;99.90
5419;DHT22;2732;52.092;11.556;2023-07-31T10:06:24;21.10;99.90
5419;DHT22;2732;52.092;11.556;2023-07-31T10:11:26;21.30;99.90
5419;DHT22;2732;52.092;11.556;2023-07-31T10:16:27;21.70;99.90
5419;DHT22;2732;52.092;11.556;2023-07-31T10:21:29;21.80;99.90
5419;DHT22;2732;52.092;11.556;2023-07-31T10:26:32;21.80;99.90
5419;DHT22;2732;52.092;11.556;2023-07-31T10:31:35;21.80;99.90
5419;DHT22;2732;52.092;11.556;2023-07-31T10:36:36;21.70;99.90
5419;DHT22;2732;52.092;11.556;2023-07-31T10:41:37;21.50;99.90
5419;DHT22;2732;52.092;11.556;2023-07-31T10:46:38;21.40;99.90
5419;DHT22;2732;52.092;11.556;2023-07-31T10:51:40;21.30;99.90
5419;DHT22;2732;52.092;11.556;2023-07-31T10:56:50;21.30;99.90
5419;DHT22;2732;52.092;11.556;2023-07-31T11:01:52;21.50;99.90
5419;DHT22;2732;52.092;11.556;2023-07-31T11:07:01;21.70;99.90
5419;DHT22;2732;52.092;11.556;2023-07-31T11:12:03;21.90;99.90
5419;DHT22;2732;52.092;11.556;2023-07-31T11:17:07;21.90;99.90
5419;DHT22;2732;52.092;11.556;2023-07-31T11:22:08;21.90;99.90
5419;DHT22;2732;52.092;11.556;2023-07-31T11:27:09;22.10;99.90
5419;DHT22;2732;52.092;11.556;2023-07-31T11:32:16;22.30;99.90
5419;DHT22;2732;52.092;11.556;2023-07-31T11:37:18;22.50;99.90
5419;DHT22;2732;52.092;11.556;2023-07-31T11:42:18;22.60;99.90
5419;DHT22;2732;52.092;11.556;2023-07-31T11:47:19;22.90;99.90
5419;DHT22;2732;52.092;11.556;2023-07-31T11:52:20;23.50;99.90
5419;DHT22;2732;52.092;11.556;2023-07-31T11:57:21;23.60;99.90
5419;DHT22;2732;52.092;11.556;2023-07-31T12:02:22;23.50;99.90
5419;DHT22;2732;52.092;11.556;2023-07-31T12:07:24;23.50;99.90
5419;DHT22;2732;52.092;11.556;2023-07-31T12:12:25;23.50;99.90
5419;DHT22;2732;52.092;11.556;2023-07-31T12:17:26;23.50;99.90
5419;DHT22;2732;52.092;11.556;2023-07-31T12:22:27;23.70;99.90
5419;DHT22;2732;52.092;11.556;2023-07-31T12:27:32;24.80;99.90
5419;DHT22;2732;52.092;11.556;2023-07-31T12:32:35;26.10;99.90
5419;DHT22;2732;52.092;11.556;2023-07-31T12:37:36;26.10;99.30
5419;DHT22;2732;52.092;11.556;2023-07-31T12:42:37;26.00;98.80
5419;DHT22;2732;52.092;11.556;2023-07-31T12:47:38;25.80;98.70
5419;DHT22;2732;52.092;11.556;2023-07-31T12:52:38;25.70;98.80
5419;DHT22;2732;52.092;11.556;2023-07-31T12:57:40;25.40;98.80
5419;DHT22;2732;52.092;11.556;2023-07-31T13:02:41;25.30;98.70
5419;DHT22;2732;52.092;11.556;2023-07-31T13:07:42;25.20;98.70
5419;DHT22;2732;52.092;11.556;2023-07-31T13:12:42;25.10;98.90
5419;DHT22;2732;52.092;11.556;2023-07-31T13:17:43;24.90;98.80
5419;DHT22;2732;52.092;11.556;2023-07-31T13:22:44;24.80;98.80
5419;DHT22;2732;52.092;11.556;2023-07-31T13:27:44;24.90;99.00
5419;DHT22;2732;52.092;11.556;2023-07-31T13:32:45;24.90;98.70
5419;DHT22;2732;52.092;11.556;2023-07-31T13:37:46;25.10;98.60
5419;DHT22;2732;52.092;11.556;2023-07-31T13:42:46;25.20;98.40
5419;DHT22;2732;52.092;11.556;2023-07-31T13:47:50;25.20;98.20
5419;DHT22;2732;52.092;11.556;2023-07-31T13:52:51;25.10;98.10
5419;DHT22;2732;52.092;11.556;2023-07-31T13:57:52;25.10;97.60
5419;DHT22;2732;52.092;11.556;2023-07-31T14:02:54;25.10;97.70
5419;DHT22;2732;52.092;11.556;2023-07-31T14:07:56;24.90;97.60
5419;DHT22;2732;52.092;11.556;2023-07-31T14:12:57;25.10;97.60
5419;DHT22;2732;52.092;11.556;2023-07-31T14:17:58;25.50;97.70
5419;DHT22;2732;52.092;11.556;2023-07-31T14:22:58;25.70;97.40
5419;DHT22;2732;52.092;11.556;2023-07-31T14:27:59;25.80;97.40
5419;DHT22;2732;52.092;11.556;2023-07-31T14:33:00;25.90;97.00
5419;DHT22;2732;52.092;11.556;2023-07-31T14:38:02;25.70;97.10
5419;DHT22;2732;52.092;11.556;2023-07-31T14:43:03;25.40;97.00
5419;DHT22;2732;52.092;11.556;2023-07-31T14:48:03;25.30;97.00
5419;DHT22;2732;52.092;11.556;2023-07-31T14:53:04;25.30;97.20
5419;DHT22;2732;52.092;11.556;2023-07-31T14:58:05;25.10;97.30
5419;DHT22;2732;52.092;11.556;2023-07-31T15:03:06;24.80;97.40
5419;DHT22;2732;52.092;11.556;2023-07-31T15:08:06;24.50;98.00
5419;DHT22;2732;52.092;11.556;2023-07-31T15:13:07;24.20;98.40
5419;DHT22;2732;52.092;11.556;2023-07-31T15:18:08;24.00;98.90
5419;DHT22;2732;52.092;11.556;2023-07-31T15:23:08;23.90;99.10
5419;DHT22;2732;52.092;11.556;2023-07-31T15:28:09;23.80;99.40
5419;DHT22;2732;52.092;11.556;2023-07-31T15:33:10;23.70;99.70
5419;DHT22;2732;52.092;11.556;2023-07-31T15:38:10;23.60;99.90
5419;DHT22;2732;52.092;11.556;2023-07-31T15:43:11;23.50;99.90
5419;DHT22;2732;52.092;11.556;2023-07-31T15:48:12;23.30;99.90
5419;DHT22;2732;52.092;11.556;2023-07-31T15:53:13;23.20;99.90
5419;DHT22;2732;52.092;11.556;2023-07-31T15:58:13;23.30;99.90
5419;DHT22;2732;52.092;11.556;2023-07-31T16:03:16;23.40;99.90
5419;DHT22;2732;52.092;11.556;2023-07-31T16:08:16;23.50;99.90
5419;DHT22;2732;52.092;11.556;2023-07-31T16:13:18;23.50;99.90
5419;DHT22;2732;52.092;11.556;2023-07-31T16:18:18;23.50;99.90
5419;DHT22;2732;52.092;11.556;2023-07-31T16:23:19;23.50;99.90
5419;DHT22;2732;52.092;11.556;2023-07-31T16:28:20;23.50;99.90
5419;DHT22;2732;52.092;11.556;2023-07-31T16:33:20;23.50;99.90
5419;DHT22;2732;52.092;11.556;2023-07-31T16:38:21;23.40;99.90
5419;DHT22;2732;52.092;11.556;2023-07-31T16:43:21;23.30;99.90
5419;DHT22;2732;52.092;11.556;2023-07-31T16:48:22;23.30;99.90
5419;DHT22;2732;52.092;11.556;2023-07-31T16:53:23;23.20;99.90
5419;DHT22;2732;52.092;11.556;2023-07-31T16:58:24;23.00;99.90
5419;DHT22;2732;52.092;11.556;2023-07-31T17:03:24;22.80;99.90
5419;DHT22;2732;52.092;11.556;2023-07-31T17:08:25;22.70;99.90
5419;DHT22;2732;52.092;11.556;2023-07-31T17:13:26;22.50;99.90
5419;DHT22;2732;52.092;11.556;2023-07-31T17:18:26;22.50;99.90
5419;DHT22;2732;52.092;11.556;2023-07-31T17:23:27;22.40;99.90
5419;DHT22;2732;52.092;11.556;2023-07-31T17:28:27;22.30;99.90
5419;DHT22;2732;52.092;11.556;2023-07-31T17:33:30;22.20;99.90
5419;DHT22;2732;52.092;11.556;2023-07-31T17:38:30;22.10;99.90
5419;DHT22;2732;52.092;11.556;2023-07-31T17:43:31;21.90;99.90
5419;DHT22;2732;52.092;11.556;2023-07-31T17:48:32;21.90;99.90
5419;DHT22;2732;52.092;11.556;2023-07-31T17:53:33;21.70;99.90
5419;DHT22;2732;52.092;11.556;2023-07-31T17:58:35;21.60;99.90
5419;DHT22;2732;52.092;11.556;2023-07-31T18:03:36;21.50;99.90
5419;DHT22;2732;52.092;11.556;2023-07-31T18:08:37;21.40;99.90
5419;DHT22;2732;52.092;11.556;2023-07-31T18:13:38;21.30;99.90
5419;DHT22;2732;52.092;11.556;2023-07-31T18:18:38;21.20;99.90
5419;DHT22;2732;52.092;11.556;2023-07-31T18:23:39;21.10;99.90
5419;DHT22;2732;52.092;11.556;2023-07-31T18:28:40;21.10;99.90
5419;DHT22;2732;52.092;11.556;2023-07-31T18:33:40;21.00;99.90
5419;DHT22;2732;52.092;11.556;2023-07-31T18:38:42;20.80;99.90
5419;DHT22;2732;52.092;11.556;2023-07-31T18:43:43;20.80;99.90
5419;DHT22;2732;52.092;11.556;2023-07-31T18:48:43;20.70;99.90
5419;DHT22;2732;52.092;11.556;2023-07-31T18:53:44;20.60;99.90
5419;DHT22;2732;52.092;11.556;2023-07-31T18:58:45;20.50;99.90
5419;DHT22;2732;52.092;11.556;2023-07-31T19:03:47;20.50;99.90
5419;DHT22;2732;52.092;11.556;2023-07-31T19:08:48;20.40;99.90
5419;DHT22;2732;52.092;11.556;2023-07-31T19:13:49;20.30;99.90
5419;DHT22;2732;52.092;11.556;2023-07-31T19:18:50;20.30;99.90
5419;DHT22;2732;52.092;11.556;2023-07-31T19:23:50;20.20;99.90
5419;DHT22;2732;52.092;11.556;2023-07-31T19:28:51;20.20;99.90
5419;DHT22;2732;52.092;11.556;2023-07-31T19:33:51;20.10;99.90
5419;DHT22;2732;52.092;11.556;2023-07-31T19:38:52;20.10;99.90
5419;DHT22;2732;52.092;11.556;2023-07-31T19:43:53;20.00;99.90
5419;DHT22;2732;52.092;11.556;2023-07-31T19:48:53;20.00;99.90
5419;DHT22;2732;52.092;11.556;2023-07-31T19:53:56;19.90;99.90
5419;DHT22;2732;52.092;11.556;2023-07-31T19:58:57;19.90;99.90
5419;DHT22;2732;52.092;11.556;2023-07-31T20:03:58;19.80;99.90
5419;DHT22;2732;52.092;11.556;2023-07-31T20:08:59;19.80;99.90
5419;DHT22;2732;52.092;11.556;2023-07-31T20:14:05;19.80;99.90
5419;DHT22;2732;52.092;11.556;2023-07-31T20:19:09;19.80;99.90
5419;DHT22;2732;52.092;11.556;2023-07-31T20:24:10;19.70;99.90
5419;DHT22;2732;52.092;11.556;2023-07-31T20:29:11;19.70;99.90
5419;DHT22;2732;52.092;11.556;2023-07-31T20:34:12;19.60;99.90
5419;DHT22;2732;52.092;11.556;2023-07-31T20:39:12;19.60;99.90
5419;DHT22;2732;52.092;11.556;2023-07-31T20:44:13;19.60;99.90
5419;DHT22;2732;52.092;11.556;2023-07-31T20:49:14;19.50;99.90
5419;DHT22;2732;52.092;11.556;2023-07-31T20:54:16;19.40;99.90
5419;DHT22;2732;52.092;11.556;2023-07-31T20:59:18;19.40;99.90
5419;DHT22;2732;52.092;11.556;2023-07-31T21:04:19;19.40;99.90
5419;DHT22;2732;52.092;11.556;2023-07-31T21:09:19;19.30;99.90
5419;DHT22;2732;52.092;11.556;2023-07-31T21:14:20;19.30;99.90
5419;DHT22;2732;52.092;11.556;2023-07-31T21:19:21;19.20;99.90
5419;DHT22;2732;52.092;11.556;2023-07-31T21:24:21;19.20;99.90
5419;DHT22;2732;52.092;11.556;2023-07-31T21:29:22;19.20;99.90
5419;DHT22;2732;52.092;11.556;2023-07-31T21:34:23;19.10;99.90
5419;DHT22;2732;52.092;11.556;2023-07-31T21:39:23;19.10;99.90
5419;DHT22;2732;52.092;11.556;2023-07-31T21:44:24;19.00;99.90
5419;DHT22;2732;52.092;11.556;2023-07-31T21:49:24;19.00;99.90
5419;DHT22;2732;52.092;11.556;2023-07-31T21:54:25;19.00;99.90
5419;DHT22;2732;52.092;11.556;2023-07-31T21:59:26;18.90;99.90
5419;DHT22;2732;52.092;11.556;2023-07-31T22:04:26;18.90;99.90
5419;DHT22;2732;52.092;11.556;2023-07-31T22:09:27;18.90;99.90
5419;DHT22;2732;52.092;11.556;2023-07-31T22:14:28;18.80;99.90
5419;DHT22;2732;52.092;11.556;2023-07-31T22:19:28;18.80;99.90
5419;DHT22;2732;52.092;11.556;2023-07-31T22:24:29;18.80;99.90
5419;DHT22;2732;52.092;11.556;2023-07-31T22:29:29;18.80;99.90
5419;DHT22;2732;52.092;11.556;2023-07-31T22:34:31;18.70;99.90
5419;DHT22;2732;52.092;11.556;2023-07-31T22:39:32;18.70;99.90
5419;DHT22;2732;52.092;11.556;2023-07-31T22:44:33;18.70;99.90
5419;DHT22;2732;52.092;11.556;2023-07-31T22:49:34;18.60;99.90
5419;DHT22;2732;52.092;11.556;2023-07-31T22:54:36;18.60;99.90
5419;DHT22;2732;52.092;11.556;2023-07-31T22:59:38;18.50;99.90
5419;DHT22;2732;52.092;11.556;2023-07-31T23:04:39;18.50;99.90
5419;DHT22;2732;52.092;11.556;2023-07-31T23:09:40;18.50;99.90
5419;DHT22;2732;52.092;11.556;2023-07-31T23:14:40;18.40;99.90
5419;DHT22;2732;52.092;11.556;2023-07-31T23:19:41;18.40;99.90
5419;DHT22;2732;52.092;11.556;2023-07-31T23:24:41;18.40;99.90
5419;DHT22;2732;52.092;11.556;2023-07-31T23:29:42;18.40;99.90
5419;DHT22;2732;52.092;11.556;2023-07-31T23:34:43;18.30;99.90
5419;DHT22;2732;52.092;11.556;2023-07-31T23:39:43;18.30;99.90
5419;DHT22;2732;52.092;11.556;2023-07-31T23:44:44;18.20;99.90
5419;DHT22;2732;52.092;11.556;2023-07-31T23:49:45;18.20;99.90
5419;DHT22;2732;52.092;11.556;2023-07-31T23:54:45;18.20;99.90
5419;DHT22;2732;52.092;11.556;2023-07-31T23:59:46;18.20;99.90
